Okeechobee, Florida
Current Conditions -  °F | °C
As of 9:55 PM on Friday 24 Oct 2014 (Local Time) from KIMM Reporting Station
Clear Clear  
Wind Chill: 70°   Ceiling: Unl
Heat Index: 70°   Visibility: 9mi
Dew Point: 66°   Wind: 8mph
Humidity: 88%   Direction: 20°NNE
Pressure: 29.92"   Gusts: NA
Location:  26.98°N, 81.1°W
Report Text: KIMM 250155Z AUTO 02007KT 9SM CLR 21/19 A2992 RMK A01 P000
Loading
Personal Weather Stations






























Interactive Weather Map
Tropical Storm Tracking
New forecast layout! Learn more

10-Day Weather Forecast

Advertisements
Track Severe Weather on mobile